• Join FlightAware (Why Join?)
  • Login
  • US Flag 
09:23AM EDT


 

Airport Tracker/Info


-or-


 

Live Flight TrackerFlight Track Log ✈ DAL268 ✈ 27-Apr-2013 ✈ KJFK - LLBG / TLV

Flight Track Log - Related Links

Times and Time Zones

All times are in EDT time to prevent confusion due to time zone crossing. See the DAL268 flight status page for this flight to view local times or setup timezone preferences in your user account.

Time Position Orientation Groundspeed Altitude Reporting Facility
EDT Latitude Longitude Course Direction KTS MPH feet Rate Location/Type
12:24AM 40.6400 -73.7510 90° East 179 206 200  Level FlightAware
12:24AM 40.6310 -73.7370 130° Southeast 178 205 800 1,680 Climbing FlightAware
12:25AM 40.6120 -73.7140 137° Southeast 206 237 1,500 1,260 Climbing FlightAware
12:25AM 40.5920 -73.6920 140° Southeast 240 276 2,000 1,260 Climbing FlightAware
12:26AM 40.5710 -73.6550 127° Southeast 266 306 2,700 1,440 Climbing FlightAware
12:26AM 40.5670 -73.6290 101° East 280 322 3,100 1,860 Climbing FlightAware
12:26AM 40.5686 -73.6031 85° East 288 331 3,600 2,460 Climbing FlightAware ADS-B
12:27AM 40.5773 -73.5755 67° East 289 333 4,400 2,700 Climbing FlightAware ADS-B
12:27AM 40.5797 -73.5711 54° Northeast 288 331 4,500 2,520 Climbing FlightAware ADS-B
12:27AM 40.5829 -73.5654 54° Northeast 288 331 4,700 3,180 Climbing FlightAware ADS-B
12:27AM 40.5907 -73.5536 49° Northeast 289 333 5,200 2,700 Climbing FlightAware ADS-B
12:27AM 40.6049 -73.5346 45° Northeast 293 337 5,800 2,400 Climbing FlightAware ADS-B
12:27AM 40.6214 -73.5125 45° Northeast 299 344 6,500 2,400 Climbing FlightAware ADS-B
12:28AM 40.6326 -73.5020 35° Northeast 297 342 6,900 2,100 Climbing FlightAware ADS-B
12:28AM 40.6378 -73.4990 24° Northeast 299 344 7,000 2,520 Climbing FlightAware ADS-B
12:28AM 40.6417 -73.4969 22° Northeast 299 344 7,200 3,300 Climbing FlightAware ADS-B
12:28AM 40.6496 -73.4930 21° North 299 344 7,500 3,000 Climbing FlightAware ADS-B
12:28AM 40.6693 -73.4817 24° Northeast 298 343 8,300 2,820 Climbing FlightAware ADS-B
12:28AM 40.6785 -73.4774 20° North 296 341 8,600 2,700 Climbing FlightAware ADS-B
12:28AM 40.6839 -73.4756 14° North 296 341 8,800 2,640 Climbing FlightAware ADS-B
12:28AM 40.6907 -73.4744 North 295 339 9,000 2,640 Climbing FlightAware ADS-B
12:28AM 40.6962 -73.4741 North 297 342 9,200 2,700 Climbing FlightAware ADS-B
12:29AM 40.7059 -73.4745 358° North 296 341 9,500 2,220 Climbing FlightAware ADS-B
12:29AM 40.7333 -73.4766 357° North 305 351 10,200 1,560 Climbing FlightAware ADS-B
12:29AM 40.7828 -73.4788 358° North 311 358 10,900 1,320 Climbing FlightAware ADS-B
12:30AM 40.8615 -73.4793 360° North 373 429 12,000 1,500 Climbing FlightAware ADS-B
12:31AM 40.8943 -73.4689 13° North 383 441 12,600 1,920 Climbing FlightAware ADS-B
12:31AM 40.9042 -73.4640 21° North 387 445 12,800 1,860 Climbing FlightAware ADS-B
12:31AM 40.9201 -73.4548 24° Northeast 392 451 13,100 2,220 Climbing FlightAware ADS-B
12:31AM 40.9573 -73.4295 27° Northeast 397 457 14,000 2,220 Climbing FlightAware ADS-B
12:31AM 40.9859 -73.4069 31° Northeast 403 464 14,600 2,040 Climbing FlightAware ADS-B
12:32AM 41.0226 -73.3690 38° Northeast 412 474 15,500 1,920 Climbing FlightAware ADS-B
12:32AM 41.0665 -73.3176 41° Northeast 420 483 16,400 1,860 Climbing FlightAware ADS-B
12:33AM 41.1227 -73.2487 43° Northeast 428 493 17,700 1,980 Climbing FlightAware ADS-B
12:34AM 41.1850 -73.1720 43° Northeast 433 498 19,200 1,980 Climbing FlightAware
12:34AM 41.1980 -73.1572 41° Northeast 428 493 19,400 1,980 Climbing FlightAware ADS-B
12:34AM 41.2468 -73.0972 43° Northeast 440 506 20,500 1,800 Climbing FlightAware ADS-B
12:35AM 41.2953 -73.0383 42° Northeast 445 512 21,400 1,620 Climbing FlightAware ADS-B
12:36AM 41.3469 -72.9753 42° Northeast 447 514 22,300 1,560 Climbing FlightAware ADS-B
12:36AM 41.3900 -72.9240 42° Northeast 451 519 23,100 1,620 Climbing FlightAware
12:36AM 41.4155 -72.8937 42° Northeast 453 521 23,500 660 Climbing FlightAware ADS-B
12:37AM 41.4570 -72.8460 41° Northeast 453 521 23,600 1,260 Climbing FlightAware
12:38AM 41.5350 -72.7510 42° Northeast 461 531 25,100 1,560 Climbing FlightAware
12:38AM 41.6040 -72.6670 42° Northeast 474 545 26,000 1,200 Climbing FlightAware
12:39AM 41.6710 -72.5880 41° Northeast 480 552 26,800 840 Climbing FlightAware
12:40AM 41.7550 -72.4850 42° Northeast 483 556 27,400 1,320 Climbing FlightAware
12:41AM 41.8390 -72.3820 42° Northeast 481 554 29,000 1,800 Climbing FlightAware
12:41AM 41.9040 -72.3040 42° Northeast 478 550 30,000 1,320 Climbing FlightAware
12:42AM 41.9670 -72.2270 42° Northeast 474 545 30,800 1,260 Climbing FlightAware
12:43AM 42.1070 -72.0820 38° Northeast 460 529 32,700 1,020 Climbing FlightAware
12:44AM 42.1770 -72.0090 38° Northeast 459 528 33,000 180 Climbing FlightAware
12:45AM 42.2580 -71.9260 37° Northeast 456 525 33,000  Level FlightAware
12:45AM 42.3260 -71.8570 37° Northeast 455 524 33,000  Level FlightAware
12:46AM 42.3980 -71.7830 37° Northeast 452 520 33,000  Level FlightAware
12:47AM 42.4650 -71.7130 38° Northeast 451 519 33,000  Level FlightAware
12:48AM 42.5320 -71.6440 37° Northeast 450 518 33,000  Level FlightAware
12:48AM 42.6080 -71.5650 37° Northeast 450 518 33,000  Level FlightAware
12:49AM 42.6730 -71.4980 37° Northeast 449 517 33,000  Level FlightAware
12:50AM 42.7450 -71.4220 38° Northeast 449 517 33,000  Level FlightAware
12:50AM 42.8110 -71.3530 37° Northeast 447 514 33,000  Level FlightAware
12:51AM 42.8870 -71.2740 37° Northeast 447 514 33,000  Level FlightAware
12:52AM 42.9520 -71.2030 39° Northeast 447 514 33,000  Level FlightAware
12:52AM 43.0170 -71.1360 37° Northeast 446 513 33,000  Level FlightAware
12:53AM 43.0890 -71.0600 38° Northeast 446 513 33,000  Level FlightAware
12:54AM 43.1550 -70.9880 39° Northeast 447 514 33,000  Level FlightAware
12:55AM 43.2290 -70.9100 38° Northeast 447 514 33,000  Level FlightAware
12:55AM 43.2940 -70.8400 38° Northeast 448 516 33,000  Level FlightAware
12:56AM 43.3600 -70.7700 38° Northeast 448 516 33,000  Level FlightAware
12:57AM 43.4330 -70.6910 38° Northeast 447 514 33,000  Level FlightAware
12:57AM 43.4970 -70.6220 38° Northeast 447 514 33,000  Level FlightAware
12:58AM 43.5620 -70.5520 38° Northeast 447 514 33,000  Level FlightAware
12:59AM 43.6370 -70.4690 39° Northeast 446 513 33,000  Level FlightAware
12:59AM 43.7030 -70.3980 38° Northeast 448 516 33,000  Level FlightAware
01:00AM 43.7730 -70.3220 38° Northeast 448 516 33,000  Level FlightAware
01:01AM 43.8380 -70.2500 39° Northeast 449 517 33,000  Level FlightAware
01:02AM 43.9140 -70.1680 38° Northeast 448 516 33,000  Level FlightAware
01:02AM 43.9800 -70.0940 39° Northeast 449 517 33,000  Level FlightAware
01:03AM 44.0430 -70.0240 39° Northeast 449 517 33,000  Level FlightAware
01:04AM 44.1140 -69.9450 39° Northeast 448 516 33,000  Level FlightAware
01:04AM 44.1700 -69.8840 38° Northeast 448 516 33,000  Level FlightAware
01:05AM 44.2550 -69.7880 39° Northeast 448 516 33,000  Level FlightAware
01:06AM 44.3170 -69.7200 38° Northeast 448 516 33,000  Level FlightAware
01:06AM 44.3820 -69.6470 39° Northeast 448 516 33,000  Level FlightAware
01:07AM 44.4550 -69.5630 39° Northeast 450 518 33,000  Level FlightAware
01:08AM 44.5210 -69.4900 38° Northeast 453 521 33,000  Level FlightAware
01:09AM 44.5850 -69.4150 40° Northeast 455 524 33,000  Level FlightAware
01:09AM 44.6590 -69.3330 38° Northeast 458 527 33,000  Level FlightAware
01:10AM 44.7280 -69.2540 39° Northeast 460 529 33,000  Level FlightAware
01:11AM 44.8010 -69.1710 39° Northeast 463 533 33,000  Level FlightAware
01:11AM 44.8660 -69.0960 39° Northeast 464 534 33,000  Level FlightAware
01:12AM 44.9440 -69.0060 39° Northeast 466 536 33,000  Level FlightAware
01:13AM 45.0010 -68.9400 39° Northeast 466 536 33,000  Level FlightAware
01:13AM 45.0740 -68.8550 39° Northeast 467 537 33,000  Level FlightAware
01:14AM 45.1490 -68.7680 39° Northeast 467 537 33,000  Level FlightAware
01:15AM 45.2180 -68.6880 39° Northeast 467 537 33,000  Level FlightAware
01:16AM 45.2850 -68.6080 40° Northeast 468 539 33,000  Level FlightAware
01:16AM 45.3610 -68.5200 39° Northeast 469 540 33,000  Level FlightAware
01:17AM 45.4180 -68.4520 40° Northeast 470 541 33,000  Level FlightAware
01:18AM 45.4860 -68.3730 39° Northeast 472 543 33,000  Level FlightAware
01:19AM 45.6390 -68.1910 40° Northeast 468 539 33,000  Level FlightAware
01:20AM 45.7560 -68.0500 40° Northeast 468 539 33,000  Level FlightAware
01:22AM 45.8920 -67.8860 40° Northeast 469 540 33,000  Level FlightAware
01:23AM 46.0080 -67.7460 40° Northeast 469 540 33,000  Level FlightAware
01:24AM 46.0840 -67.6540 40° Northeast 468 539 33,000  Level FlightAware
01:24AM 46.1510 -67.5720 40° Northeast 468 539 33,000  Level FlightAware
01:25AM 46.2030 -67.5090 40° Northeast 468 539 33,000  Level FlightAware
01:26AM 46.2840 -67.4090 40° Northeast 467 537 33,000  Level FlightAware
01:26AM 46.3390 -67.3390 41° Northeast 467 537 33,000  Level FlightAware
01:27AM 46.3950 -67.2690 41° Northeast 467 537 33,000  Level FlightAware
01:28AM 46.4640 -67.1820 41° Northeast 467 537 33,000  Level FlightAware
01:28AM 46.5190 -67.1120 41° Northeast 467 537 33,000  Level FlightAware
01:29AM 46.5750 -67.0420 41° Northeast 467 537 33,000  Level FlightAware
01:30AM 46.6300 -66.9710 42° Northeast 467 537 33,000  Level FlightAware
01:30AM 46.6860 -66.9010 41° Northeast 467 537 33,000  Level FlightAware
01:31AM 46.7550 -66.8130 41° Northeast 467 537 33,000  Level FlightAware
01:32AM 46.8100 -66.7430 41° Northeast 467 537 33,000  Level FlightAware
01:33AM 46.8660 -66.6720 41° Northeast 467 537 33,000  Level FlightAware
01:33AM 46.9210 -66.6020 41° Northeast 467 537 33,000  Level FlightAware
01:34AM 46.9770 -66.5310 41° Northeast 467 537 33,000  Level FlightAware
01:35AM 47.0460 -66.4430 41° Northeast 467 537 33,000  Level FlightAware
01:35AM 47.2667 -66.1500 41° Northeast 480 552 33,000  Level Moncton Center
01:36AM 47.3500 -66.0333 43° Northeast 480 552 33,000  Level Moncton Center
01:37AM 47.4500 -65.9000 42° Northeast 480 552 33,000  Level Moncton Center
01:38AM 47.5500 -65.7667 42° Northeast 480 552 33,000  Level Moncton Center
01:39AM 47.6667 -65.6333 38° Northeast 480 552 33,000  Level Moncton Center
01:40AM 47.7667 -65.5000 42° Northeast 480 552 33,000  Level Moncton Center
01:41AM 47.8667 -65.3667 42° Northeast 480 552 33,000  Level Moncton Center
01:42AM 47.9667 -65.2167 45° Northeast 490 564 33,000  Level Moncton Center
01:43AM 48.0667 -65.1000 38° Northeast 490 564 33,000  Level Moncton Center
01:44AM 48.1500 -64.9500 50° Northeast 480 552 33,000  Level Moncton Center
01:45AM 48.2667 -64.8167 37° Northeast 490 564 33,000  Level Moncton Center
01:46AM 48.3500 -64.6667 50° Northeast 490 564 33,000  Level Moncton Center
01:47AM 48.4667 -64.5500 34° Northeast 490 564 33,000  Level Moncton Center
01:48AM 48.5667 -64.4000 45° Northeast 490 564 33,000  Level Moncton Center
01:49AM 48.6667 -64.2500 45° Northeast 490 564 33,000  Level Moncton Center
01:50AM 48.7667 -64.1167 41° Northeast 500 575 33,000  Level Moncton Center
01:51AM 48.8667 -63.9667 45° Northeast 510 587 33,000  Level Moncton Center
01:52AM 48.9333 -63.8833 39° Northeast 500 575 33,000  Level Gander Center
01:52AM 48.9667 -63.8333 45° Northeast 500 575 33,000  Level Moncton Center
01:53AM 49.0667 -63.6833 44° Northeast 500 575 33,000  Level Moncton Center
01:54AM 49.1500 -63.5833 38° Northeast 510 587 33,000  Level Gander Center
01:55AM 49.2500 -63.4333 44° Northeast 510 587 33,000  Level Gander Center
01:55AM 49.2833 -63.3667 53° Northeast 510 587 33,000  Level Moncton Center
01:56AM 49.3833 -63.2333 41° Northeast 510 587 33,000  Level Moncton Center
01:57AM 49.4500 -63.1333 44° Northeast 520 598 33,000  Level Gander Center
01:57AM 49.5000 -63.0833 33° Northeast 510 587 33,000  Level Moncton Center
01:58AM 49.5500 -62.9833 52° Northeast 510 587 33,000  Level Gander Center
01:59AM 49.6500 -62.8333 44° Northeast 510 587 33,000  Level Gander Center
01:59AM 49.7000 -62.7667 41° Northeast 510 587 33,000  Level Moncton Center
02:00AM 49.8000 -62.6000 47° Northeast 520 598 33,000  Level Moncton Center
02:01AM 49.9167 -62.4500 40° Northeast 530 610 33,000  Level Moncton Center
02:02AM 49.9667 -62.3500 52° Northeast 500 575 33,000  Level Gander Center
02:03AM 50.0667 -62.2167 41° Northeast 520 598 33,000  Level Gander Center
02:04AM 50.1833 -62.0333 45° Northeast 530 610 33,000  Level Gander Center
02:04AM 50.2167 -61.9833 44° Northeast 520 598 33,000  Level Moncton Center
02:05AM 50.3167 -61.8333 44° Northeast 510 587 33,000  Level Moncton Center
02:06AM 50.3833 -61.7333 44° Northeast 520 598 33,000  Level Gander Center
02:07AM 50.4833 -61.5667 47° Northeast 520 598 33,000  Level Gander Center
02:08AM 50.5833 -61.4167 44° Northeast 520 598 33,000  Level Gander Center
02:09AM 50.6833 -61.2500 47° Northeast 520 598 33,000  Level Gander Center
02:10AM 50.7833 -61.1000 43° Northeast 530 610 33,000  Level Gander Center
02:11AM 50.9000 -60.9167 45° Northeast 520 598 33,000  Level Gander Center
02:12AM 51.0000 -60.7500 46° Northeast 530 610 33,000  Level Gander Center
02:13AM 51.1000 -60.5833 46° Northeast 530 610 33,000  Level Gander Center
02:14AM 51.2000 -60.4333 43° Northeast 530 610 33,000  Level Gander Center
02:15AM 51.3000 -60.2667 46° Northeast 530 610 33,000  Level Gander Center
02:16AM 51.4000 -60.0833 49° Northeast 530 610 33,000  Level Gander Center
02:16AM 51.4333 -60.0167 51° Northeast 530 610 33,000  Level Moncton Center
02:17AM 51.5500 -59.8167 47° Northeast 530 610 33,000  Level Moncton Center
02:18AM 51.6167 -59.6500 57° Northeast 540 621 33,000  Level Moncton Center
02:19AM 51.6833 -59.5333 47° Northeast 540 621 33,000  Level Gander Center
02:19AM 51.7333 -59.4500 46° Northeast 540 621 33,000  Level Moncton Center
02:20AM 51.8000 -59.3333 47° Northeast 540 621 33,000 60 Level Gander Center
02:21AM 51.8833 -59.1333 56° Northeast 540 621 33,100 420 Climbing Gander Center
02:21AM 51.9167 -59.0833 43° Northeast 540 621 33,600 1,020 Climbing Moncton Center
02:22AM 52.0167 -58.8833 51° Northeast 550 633 34,500 840 Climbing Moncton Center
02:23AM 52.0833 -58.7500 51° Northeast 550 633 35,000 300 Climbing Gander Center
02:24AM 52.1833 -58.5833 46° Northeast 550 633 35,000  Level Gander Center
02:25AM 52.2667 -58.3833 56° Northeast 550 633 35,000  Level Gander Center
02:26AM 52.3667 -58.1833 51° Northeast 550 633 35,000  Level Gander Center
02:27AM 52.4667 -57.9833 51° Northeast 550 633 35,000  Level Gander Center
02:28AM 52.5667 -57.7833 51° Northeast 550 633 35,000  Level Gander Center
02:28AM 52.5833 -57.7000 72° East 550 633 35,000  Level Moncton Center
02:29AM 52.6833 -57.5167 48° Northeast 550 633 35,000  Level Moncton Center
02:30AM 52.7833 -57.3167 50° Northeast 550 633 35,000  Level Moncton Center
02:31AM 52.8667 -57.1000 57° Northeast 550 633 35,000  Level Moncton Center
02:32AM 52.9333 -56.9833 47° Northeast 560 644 35,000  Level Gander Center
02:33AM 53.0333 -56.7833 50° Northeast 560 644 35,000  Level Gander Center
02:34AM 53.1167 -56.5667 57° Northeast 560 644 35,000  Level Gander Center
02:34AM 53.1667 -56.5000 39° Northeast 560 644 35,000  Level Moncton Center
02:35AM 53.2167 -56.3667 58° Northeast 560 644 35,000  Level Gander Center
02:36AM 53.3167 -56.1500 52° Northeast 560 644 35,000  Level Gander Center
02:36AM 53.3500 -56.1000 42° Northeast 560 644 35,000  Level Moncton Center
02:37AM 53.4500 -55.8833 52° Northeast 560 644 35,000  Level Moncton Center
02:38AM 53.5000 -55.7333 61° Northeast 560 644 35,000  Level Gander Center
02:39AM 53.6000 -55.5333 50° Northeast 570 656 35,000  Level Gander Center
02:39AM 53.6333 -55.4500 56° Northeast 560 644 35,000  Level Moncton Center
02:40AM 53.6833 -55.3167 58° Northeast 560 644 35,000  Level Gander Center
02:41AM 53.7667 -55.1167 55° Northeast 560 644 35,000  Level Gander Center
02:42AM 53.8667 -54.9000 52° Northeast 550 633 35,000  Level Gander Center
02:43AM 53.8667 -54.9667 67° East 558 642 35,000  Level ETMS Enhanced Traffic Management System
02:43AM 53.9333 -54.6667 67° East 560 644 35,000  Level Gander Center
02:44AM 53.9833 -54.4167 71° East 560 644 35,000  Level Gander Center
02:45AM 54.0500 -54.1833 64° Northeast 560 644 35,000  Level Gander Center
02:46AM 54.1000 -53.9500 70° East 560 644 35,000  Level Gander Center
02:47AM 54.1667 -53.7000 65° Northeast 570 656 35,000  Level Gander Center
02:48AM 54.2167 -53.4333 72° East 570 656 35,000  Level Gander Center
02:49AM 54.2833 -53.2000 64° Northeast 570 656 35,000  Level Gander Center
02:50AM 54.3333 -52.9500 71° East 560 644 35,000  Level Gander Center
02:51AM 54.4000 -52.7167 64° Northeast 560 644 35,000  Level Gander Center
02:52AM 54.4333 -52.5000 75° East 560 644 35,000  Level Gander Center
02:53AM 54.4833 -52.2667 70° East 560 644 35,000  Level Gander Center
02:54AM 54.5500 -52.0167 65° Northeast 560 644 35,000  Level Gander Center
02:55AM 54.6000 -51.7500 72° East 560 644 35,000  Level Gander Center
02:56AM 54.6667 -51.5000 65° Northeast 560 644 35,000  Level Gander Center
02:57AM 54.7167 -51.2500 71° East 560 644 35,000  Level Gander Center
02:59AM 54.8333 -50.7000 70° East 320 368 35,000  Level Gander Center
02:59AM 54.8500 -50.6000 74° East 440 506 35,000  Level Gander Center
03:00AM 54.8833 -50.3833 75° East 480 552 35,000  Level Gander Center
03:02AM 54.9619 -50.1260 62° Northeast  Level FlightAware Approximate
03:05AM 55.0000 -50.0000 66° East 547 629 35,000  Level ETMS Enhanced Traffic Management System
03:09AM 55.3462 -48.5790 66° East  Level FlightAware Approximate
03:10AM 55.3987 -48.3552 67° East  Level FlightAware Approximate
03:11AM 55.4508 -48.1307 68° East  Level FlightAware Approximate
03:12AM 55.5888 -47.5365 68° East 547 629 35,000  Level FlightAware Transoceanic
03:13AM 55.6449 -47.2862 68° East 547 629 35,000  Level FlightAware Transoceanic
03:14AM 55.7006 -47.0351 69° East 547 629 35,000  Level FlightAware Transoceanic
03:15AM 55.7557 -46.7834 69° East 547 629 35,000  Level FlightAware Transoceanic
03:16AM 55.8102 -46.5309 69° East 547 629 35,000  Level FlightAware Transoceanic
03:17AM 55.8643 -46.2777 69° East 547 629 35,000  Level FlightAware Transoceanic
03:18AM 55.9179 -46.0238 69° East 547 629 35,000  Level FlightAware Transoceanic
03:19AM 55.9709 -45.7692 70° East 547 629 35,000  Level FlightAware Transoceanic
03:20AM 56.0234 -45.5139 70° East 547 629 35,000  Level FlightAware Transoceanic
03:21AM 56.0753 -45.2580 70° East 547 629 35,000  Level FlightAware Transoceanic
03:22AM 56.1268 -45.0013 70° East 547 629 35,000  Level FlightAware Transoceanic
03:23AM 56.1777 -44.7440 71° East 547 629 35,000  Level FlightAware Transoceanic
03:24AM 56.2281 -44.4859 71° East 547 629 35,000  Level FlightAware Transoceanic
03:25AM 56.2779 -44.2272 71° East 547 629 35,000  Level FlightAware Transoceanic
03:26AM 56.3272 -43.9679 71° East 547 629 35,000  Level FlightAware Transoceanic
03:27AM 56.3759 -43.7078 71° East 547 629 35,000  Level FlightAware Transoceanic
03:28AM 56.4241 -43.4471 72° East 547 629 35,000  Level FlightAware Transoceanic
03:29AM 56.4718 -43.1858 72° East 547 629 35,000  Level FlightAware Transoceanic
03:30AM 56.5189 -42.9238 72° East 547 629 35,000  Level FlightAware Transoceanic
03:31AM 56.5654 -42.6611 72° East 547 629 35,000  Level FlightAware Transoceanic
03:32AM 56.6114 -42.3978 73° East 547 629 35,000  Level FlightAware Transoceanic
03:33AM 56.6568 -42.1339 73° East 547 629 35,000  Level FlightAware Transoceanic
03:34AM 56.7017 -41.8693 73° East 547 629 35,000  Level FlightAware Transoceanic
03:35AM 56.7460 -41.6041 73° East 547 629 35,000  Level FlightAware Transoceanic
03:36AM 56.7898 -41.3383 73° East 547 629 35,000  Level FlightAware Transoceanic
03:37AM 56.8330 -41.0718 74° East 547 629 35,000  Level FlightAware Transoceanic
03:38AM 56.8756 -40.8048 74° East 547 629 35,000  Level FlightAware Transoceanic
03:39AM 56.9176 -40.5371 74° East 547 629 35,000  Level FlightAware Transoceanic
03:40AM 56.9591 -40.2688 74° East 547 629 35,000  Level FlightAware Transoceanic
03:41AM 56.9961 -40.0256 74° East  Level FlightAware Approximate
03:42AM 57.0327 -39.7819 74° East  Level FlightAware Approximate
03:43AM 57.0056 -39.8007 87° East  Level FlightAware Approximate
03:43AM 57.0000 -40.0000 86° East 559 643 35,000  Level ETMS Enhanced Traffic Management System
03:44AM 57.0123 -39.5483 87° East  Level FlightAware Approximate
03:45AM 57.0184 -39.2962 87° East  Level FlightAware Approximate
03:46AM 57.0241 -39.0440 88° East  Level FlightAware Approximate
03:47AM 57.0292 -38.7918 88° East  Level FlightAware Approximate
03:48AM 57.0341 -38.5395 87° East  Level FlightAware Approximate
03:49AM 57.0703 -37.7177 88° East 559 643 35,000  Level FlightAware Transoceanic
03:50AM 57.0761 -37.4319 88° East 559 643 35,000  Level FlightAware Transoceanic
03:51AM 57.0814 -37.1460 88° East 559 643 35,000  Level FlightAware Transoceanic
03:52AM 57.0859 -36.8600 88° East 559 643 35,000  Level FlightAware Transoceanic
03:53AM 57.0898 -36.5740 89° East 559 643 35,000  Level FlightAware Transoceanic
03:54AM 57.0931 -36.2879 89° East 559 643 35,000  Level FlightAware Transoceanic
03:55AM 57.0957 -36.0017 89° East 559 643 35,000  Level FlightAware Transoceanic
03:56AM 57.0977 -35.7155 89° East 559 643 35,000  Level FlightAware Transoceanic
03:57AM 57.0990 -35.4293 90° East 559 643 35,000  Level FlightAware Transoceanic
03:58AM 57.0996 -35.1431 90° East 559 643 35,000  Level FlightAware Transoceanic
03:59AM 57.0996 -34.8569 90° East 559 643 35,000  Level FlightAware Transoceanic
04:00AM 57.0990 -34.5707 90° East 559 643 35,000  Level FlightAware Transoceanic
04:01AM 57.0977 -34.2845 91° East 559 643 35,000  Level FlightAware Transoceanic
04:02AM 57.0957 -33.9983 91° East 559 643 35,000  Level FlightAware Transoceanic
04:03AM 57.0931 -33.7121 91° East 559 643 35,000  Level FlightAware Transoceanic
04:04AM 57.0898 -33.4260 91° East 559 643 35,000  Level FlightAware Transoceanic
04:05AM 57.0859 -33.1400 92° East 559 643 35,000  Level FlightAware Transoceanic
04:06AM 57.0814 -32.8540 92° East 559 643 35,000  Level FlightAware Transoceanic
04:07AM 57.0761 -32.5681 92° East 559 643 35,000  Level FlightAware Transoceanic
04:08AM 57.0703 -32.2823 92° East 559 643 35,000  Level FlightAware Transoceanic
04:09AM 57.0638 -31.9966 93° East 559 643 35,000  Level FlightAware Transoceanic
04:10AM 57.0566 -31.7109 93° East 559 643 35,000  Level FlightAware Transoceanic
04:11AM 57.0488 -31.4254 93° East 559 643 35,000  Level FlightAware Transoceanic
04:12AM 57.0403 -31.1401 93° East 559 643 35,000  Level FlightAware Transoceanic
04:13AM 57.0312 -30.8548 93° East 559 643 35,000  Level FlightAware Transoceanic
04:14AM 57.0215 -30.5697 94° East 559 643 35,000  Level FlightAware Transoceanic
04:15AM 57.0111 -30.2848 94° East 559 643 35,000  Level FlightAware Transoceanic
04:16AM 57.0013 -30.0331 94° East  Level FlightAware Approximate
04:17AM 56.9911 -29.7816 94° East  Level FlightAware Approximate
04:18AM 56.9889 -29.8153 96° East  Level FlightAware Approximate
04:19AM 56.9733 -29.5648 96° East  Level FlightAware Approximate
04:19AM 57.0000 -30.0000 96° East 560 644 35,000  Level ETMS Enhanced Traffic Management System
04:20AM 56.9572 -29.3146 97° East  Level FlightAware Approximate
04:21AM 56.9407 -29.0649 97° East  Level FlightAware Approximate
04:22AM 56.9237 -28.8155 97° East  Level FlightAware Approximate
04:23AM 56.9062 -28.5662 97° East  Level FlightAware Approximate
04:24AM 56.8881 -28.3173 97° East  Level FlightAware Approximate
04:25AM 56.8478 -27.7352 98° East 560 644 35,000  Level FlightAware Transoceanic
04:26AM 56.8259 -27.4534 98° East 560 644 35,000  Level FlightAware Transoceanic
04:27AM 56.8033 -27.1721 98° East 560 644 35,000  Level FlightAware Transoceanic
04:28AM 56.7802 -26.8910 99° East 560 644 35,000  Level FlightAware Transoceanic
04:29AM 56.7564 -26.6103 99° East 560 644 35,000  Level FlightAware Transoceanic
04:30AM 56.7320 -26.3299 99° East 560 644 35,000  Level FlightAware Transoceanic
04:31AM 56.7069 -26.0500 99° East 560 644 35,000  Level FlightAware Transoceanic
04:32AM 56.6812 -25.7704 100° East 560 644 35,000  Level FlightAware Transoceanic
04:33AM 56.6549 -25.4911 100° East 560 644 35,000  Level FlightAware Transoceanic
04:34AM 56.6280 -25.2123 100° East 560 644 35,000  Level FlightAware Transoceanic
04:35AM 56.6004 -24.9339 100° East 560 644 35,000  Level FlightAware Transoceanic
04:36AM 56.5723 -24.6559 101° East 560 644 35,000  Level FlightAware Transoceanic
04:37AM 56.5435 -24.3783 101° East 560 644 35,000  Level FlightAware Transoceanic
04:38AM 56.5141 -24.1012 101° East 560 644 35,000  Level FlightAware Transoceanic
04:39AM 56.4841 -23.8244 101° East 560 644 35,000  Level FlightAware Transoceanic
04:40AM 56.4534 -23.5481 101° East 560 644 35,000  Level FlightAware Transoceanic
04:41AM 56.4222 -23.2723 102° East 560 644 35,000  Level FlightAware Transoceanic
04:42AM 56.3903 -22.9969 102° East 560 644 35,000  Level FlightAware Transoceanic
04:43AM 56.3578 -22.7220 102° East 560 644 35,000  Level FlightAware Transoceanic
04:44AM 56.3247 -22.4476 102° East 560 644 35,000  Level FlightAware Transoceanic
04:45AM 56.2911 -22.1736 103° East 560 644 35,000  Level FlightAware Transoceanic
04:46AM 56.2568 -21.9001 103° East 560 644 35,000  Level FlightAware Transoceanic
04:47AM 56.2219 -21.6271 103° East 560 644 35,000  Level FlightAware Transoceanic
04:48AM 56.1864 -21.3547 103° East 560 644 35,000  Level FlightAware Transoceanic
04:49AM 56.1503 -21.0827 104° East 560 644 35,000  Level FlightAware Transoceanic
04:50AM 56.1136 -20.8112 104° East 560 644 35,000  Level FlightAware Transoceanic
04:51AM 56.0763 -20.5403 104° East 560 644 35,000  Level FlightAware Transoceanic
04:52AM 56.0385 -20.2699 104° East 560 644 35,000  Level FlightAware Transoceanic
04:53AM 56.0046 -20.0320 104° East  Level FlightAware Approximate
04:54AM 55.9703 -19.7946 104° East  Level FlightAware Approximate
04:55AM 55.9927 -19.8214 94° East  Level FlightAware Approximate
04:56AM 55.9824 -19.5769 94° East  Level FlightAware Approximate
04:57AM 55.9716 -19.3325 94° East  Level FlightAware Approximate
04:58AM 55.9603 -19.0883 95° East  Level FlightAware Approximate
04:59AM 55.9485 -18.8442 95° East  Level FlightAware Approximate
05:00AM 55.9362 -18.6002 95° East  Level FlightAware Approximate
05:01AM 55.9235 -18.3565 95° East  Level FlightAware Approximate
05:02AM 55.9102 -18.1128 95° East  Level FlightAware Approximate
05:03AM 55.8965 -17.8694 96° East  Level FlightAware Approximate
05:04AM 55.8823 -17.6261 96° East  Level FlightAware Approximate
05:05AM 55.8676 -17.3830 96° East  Level FlightAware Approximate
05:06AM 55.8525 -17.1401 96° East  Level FlightAware Approximate
05:07AM 55.8369 -16.8974 96° East  Level FlightAware Approximate
05:08AM 55.8208 -16.6549 97° East  Level FlightAware Approximate
05:09AM 55.8042 -16.4126 97° East  Level FlightAware Approximate
05:10AM 55.7871 -16.1705 97° East  Level FlightAware Approximate
05:11AM 55.7696 -15.9286 97° East  Level FlightAware Approximate
05:12AM 55.7516 -15.6869 97° East  Level FlightAware Approximate
05:13AM 55.7331 -15.4455 98° East  Level FlightAware Approximate
05:14AM 55.7141 -15.2043 98° East  Level FlightAware Approximate
05:15AM 55.6947 -14.9637 98° East  Level FlightAware Approximate
05:16AM 55.6749 -14.7234 98° East  Level FlightAware Approximate
05:17AM 55.6545 -14.4833 98° East  Level FlightAware Approximate
05:17AM 54.9920 -13.3940 99° East 554 638 35,000  Level FlightAware
05:18AM 55.6337 -14.2435 99° East  Level FlightAware Approximate
05:18AM 54.9880 -13.1540 92° East 554 638 35,000  Level FlightAware
05:19AM 54.9840 -12.9760 92° East 554 638 35,000  Level FlightAware
05:20AM 54.9810 -12.8070 92° East 554 638 35,000  Level FlightAware
05:20AM 54.9770 -12.6340 92° East 554 638 35,000  Level FlightAware
05:21AM 54.9720 -12.4250 92° East 554 638 35,000  Level FlightAware
05:22AM 54.9670 -12.2290 92° East 554 638 35,000  Level FlightAware
05:22AM 54.9630 -12.0650 92° East 553 636 35,000  Level FlightAware
05:23AM 54.9570 -11.8690 93° East 552 635 35,000  Level FlightAware
05:24AM 54.9520 -11.6970 93° East 552 635 35,000  Level FlightAware
05:25AM 54.9460 -11.4840 93° East 551 634 35,000  Level FlightAware
05:25AM 54.9390 -11.2860 93° East 550 633 35,000  Level FlightAware
05:26AM 54.9330 -11.1090 93° East 549 632 35,000  Level FlightAware
05:27AM 54.9270 -10.9340 93° East 548 631 35,000  Level FlightAware
05:27AM 54.9210 -10.7320 93° East 547 629 35,000  Level FlightAware
05:28AM 54.9150 -10.5610 93° East 547 629 35,000  Level FlightAware
05:29AM 54.9090 -10.3590 93° East 546 628 35,000  Level FlightAware
05:29AM 54.9040 -10.2280 94° East 546 628 35,000  Level FlightAware
05:30AM 54.8980 -10.0130 93° East 546 628 35,000  Level FlightAware
05:31AM 54.8910 -9.8130 93° East 546 628 35,000  Level FlightAware
05:32AM 54.8860 -9.6860 94° East 546 628 35,000  Level FlightAware
05:32AM 54.8750 -9.4860 95° East 545 627 35,000  Level FlightAware
05:33AM 54.8240 -9.2300 109° East 542 624 35,000  Level FlightAware
05:34AM 54.7940 -9.0860 110° East 541 623 35,000 -1,500 Level FlightAware
05:34AM 54.7683 -8.9596 110° East 484 557 33,500  Descending FlightAware UK
05:34AM 54.7660 -8.9510 110° East 542 624 35,000  Climbing FlightAware
05:35AM 54.7482 -8.8616 110° East 484 557 33,500 -2,760 Descending FlightAware UK
05:35AM 54.7330 -8.7881 110° East 484 557 33,500 2,520 Level FlightAware UK
05:35AM 54.7220 -8.7350 110° East 541 623 35,000  Climbing FlightAware
05:36AM 54.7031 -8.6413 110° East 484 557 33,500 -2,460 Descending FlightAware UK
05:36AM 54.6878 -8.5672 110° East 486 559 33,500 4,260 Level FlightAware UK
05:36AM 54.6880 -8.5680 110° East 542 624 35,000  Climbing FlightAware
05:36AM 54.6727 -8.4941 110° East 486 559 33,500 -2,760 Descending FlightAware UK
05:37AM 54.6578 -8.4208 109° East 486 559 33,500  Level FlightAware UK
05:37AM 54.6427 -8.3477 110° East 484 557 33,500  Level FlightAware UK
05:37AM 54.6276 -8.2749 110° East 484 557 33,500  Level FlightAware UK
05:37AM 54.6128 -8.2019 109° East 488 562 33,500  Level FlightAware UK
05:38AM 54.5989 -8.1287 108° East 486 559 33,500  Level FlightAware UK
05:38AM 54.5851 -8.0556 108° East 486 559 33,500  Level FlightAware UK
05:38AM 54.5710 -7.9829 108° East 488 562 33,500  Level FlightAware UK
05:39AM 54.5566 -7.9103 109° East 486 559 33,500  Level FlightAware UK
05:39AM 54.5421 -7.8379 109° East 482 555 33,500 3,420 Level FlightAware UK
05:39AM 54.5380 -7.8200 109° East 534 615 35,000  Climbing FlightAware
05:39AM 54.5229 -7.7417 109° East 482 555 33,500 -2,700 Descending FlightAware UK
05:40AM 54.5084 -7.6697 109° East 482 555 33,500 3,720 Level FlightAware UK
05:40AM 54.5050 -7.6550 109° East 533 613 35,000  Climbing FlightAware
05:40AM 54.4891 -7.5736 109° East 486 559 33,500 -2,520 Descending FlightAware UK
05:40AM 54.4745 -7.5019 109° East 486 559 33,500 4,080 Level FlightAware UK
05:40AM 54.4730 -7.5000 109° East 531 611 35,000  Climbing FlightAware
05:41AM 54.4548 -7.4067 109° East 484 557 33,500 -2,400 Descending FlightAware UK
05:41AM 54.4401 -7.3354 110° East 492 566 33,500 3,600 Level FlightAware UK
05:41AM 54.4350 -7.3170 110° East 529 609 35,000  Climbing FlightAware
05:41AM 54.4202 -7.2399 110° East 484 557 33,500 -2,580 Descending FlightAware UK
05:42AM 54.4055 -7.1691 110° East 490 564 33,500 3,900 Level FlightAware UK
05:42AM 54.4030 -7.1600 110° East 527 606 35,000  Climbing FlightAware
05:42AM 54.3859 -7.0748 110° East 488 562 33,500 -2,460 Descending FlightAware UK
05:42AM 54.3714 -7.0043 109° East 490 564 33,500 3,420 Level FlightAware UK
05:43AM 54.3670 -6.9840 109° East 522 601 35,000  Climbing FlightAware
05:43AM 54.3517 -6.9113 109° East 486 559 33,500 -2,700 Descending FlightAware UK
05:43AM 54.3371 -6.8420 110° East 484 557 33,500 3,720 Level FlightAware UK
05:43AM 54.3340 -6.8290 110° East 520 598 35,000  Climbing FlightAware
05:44AM 54.3176 -6.7495 110° East 484 557 33,500 -2,520 Descending FlightAware UK
05:44AM 54.3028 -6.6802 110° East 484 557 33,500 4,080 Level FlightAware UK
05:44AM 54.3020 -6.6780 110° East 518 596 35,000  Climbing FlightAware
05:44AM 54.2832 -6.5879 110° East 484 557 33,500 -2,400 Descending FlightAware UK
05:45AM 54.2685 -6.5189 110° East 484 557 33,500 3,600 Level FlightAware UK
05:45AM 54.2630 -6.4980 110° East 516 594 35,000  Climbing FlightAware
05:45AM 54.2489 -6.4271 110° East 480 552 33,500 -2,580 Descending FlightAware UK
05:45AM 54.2340 -6.3585 110° East 482 555 33,500 3,900 Level FlightAware UK
05:45AM 54.2310 -6.3490 110° East 514 592 35,000  Climbing FlightAware
05:46AM 54.2142 -6.2672 110° East 486 559 33,500 -2,460 Descending FlightAware UK
05:46AM 54.1994 -6.1989 110° East 486 559 33,500 3,420 Level FlightAware UK
05:46AM 54.1950 -6.1780 110° East 513 590 35,000 240 Climbing FlightAware
05:46AM 54.1795 -6.1079 110° East 488 562 33,600 -1,980 Descending FlightAware UK
05:47AM 54.1644 -6.0390 111° Southeast 488 562 33,900 4,740 Climbing FlightAware UK
05:47AM 54.1620 -6.0300 111° Southeast 516 594 35,500 1,200 Climbing FlightAware
05:47AM 54.1445 -5.9478 111° Southeast 504 580 34,400 1,860 Descending FlightAware UK
05:47AM 54.1320 -5.8940 111° Southeast 502 578 36,600 1,800 Climbing FlightAware
05:48AM 54.1148 -5.8153 111° Southeast 478 550 35,500 -1,800 Descending FlightAware UK
05:48AM 54.1003 -5.7500 111° Southeast 478 550 35,500 4,260 Level FlightAware UK
05:48AM 54.1000 -5.7520 111° Southeast 498 573 37,000  Climbing FlightAware
05:48AM 54.0857 -5.6837 111° Southeast 490 564 35,500 -2,760 Descending FlightAware UK
05:49AM 54.0709 -5.6180 111° Southeast 492 566 35,500 3,000 Level FlightAware UK
05:49AM 54.0630 -5.5840 111° Southeast 496 571 37,000  Climbing FlightAware
05:49AM 54.0463 -5.5089 111° Southeast 486 559 35,500 -2,520 Descending FlightAware UK
05:49AM 54.0316 -5.4435 111° Southeast 486 559 35,500 4,080 Level FlightAware UK
05:49AM 54.0300 -5.4390 111° Southeast 494 568 37,000  Climbing FlightAware
05:50AM 54.0121 -5.3565 111° Southeast 486 559 35,500 -2,400 Descending FlightAware UK
05:50AM 53.9973 -5.2916 111° Southeast 486 559 35,500 3,600 Level FlightAware UK
05:50AM 53.9940 -5.2800 111° Southeast 492 566 37,000  Climbing FlightAware
05:50AM 53.9774 -5.2045 111° Southeast 478 550 35,500 -2,580 Descending FlightAware UK
05:51AM 53.9626 -5.1399 111° Southeast 478 550 35,500 3,900 Level FlightAware UK
05:51AM 53.9610 -5.1320 111° Southeast 491 565 37,000  Climbing FlightAware
05:51AM 53.9429 -5.0539 111° Southeast 486 559 35,500  Descending FlightAware UK
05:51AM 53.9280 -4.9890 111° Southeast 493 567 37,000  Climbing FlightAware
05:52AM 53.9130 -4.9247 111° Southeast 488 562 35,500 -2,760 Descending FlightAware UK
05:52AM 53.8954 -4.8620 115° Southeast 488 562 35,500 3,000 Level FlightAware UK
05:52AM 53.8850 -4.8310 115° Southeast 490 564 37,000  Climbing FlightAware
05:53AM 53.8592 -4.7648 115° Southeast 492 566 35,500 -2,520 Descending FlightAware UK
05:53AM 53.8342 -4.7106 128° Southeast 488 562 35,500 4,080 Level FlightAware UK
05:53AM 53.8350 -4.7130 128° Southeast 489 563 37,000  Climbing FlightAware
05:53AM 53.7932 -4.6194 128° Southeast 486 559 35,500 -1,620 Descending FlightAware UK
05:54AM 53.7517 -4.5292 128° Southeast 484 557 35,500 2,040 Level FlightAware UK
05:54AM 53.7380 -4.5020 128° Southeast 487 560 37,000  Climbing FlightAware
05:54AM 53.7021 -4.4212 128° Southeast 482 555 35,500  Descending FlightAware UK
05:55AM 53.6800 -4.3760 128° Southeast 487 560 37,000  Climbing FlightAware
05:55AM 53.6523 -4.3136 128° Southeast 482 555 35,500  Descending FlightAware UK
05:55AM 53.6200 -4.2440 128° Southeast 487 560 37,000  Climbing FlightAware
05:56AM 53.5858 -4.1706 128° Southeast 480 552 35,500  Descending FlightAware UK
05:56AM 53.5640 -4.1250 128° Southeast 487 560 37,000  Climbing FlightAware
05:56AM 53.5354 -4.0629 128° Southeast 476 548 35,500  Descending FlightAware UK
05:57AM 53.5030 -3.9940 128° Southeast 490 564 37,000  Climbing FlightAware
05:57AM 53.4598 -3.9017 128° Southeast 480 552 35,500  Descending FlightAware UK
05:58AM 53.4460 -3.8750 128° Southeast 491 565 37,000 4,680 Climbing FlightAware
05:58AM 53.4330 -3.8476 128° Southeast 493 567 37,000  Level FlightAware ADS-B
05:58AM 53.3873 -3.7488 128° Southeast 494 568 37,000 -1,920 Level FlightAware ADS-B
05:58AM 53.3663 -3.7042 128° Southeast 480 552 35,500  Descending FlightAware UK
05:59AM 53.3442 -3.6591 128° Southeast 496 571 37,000 1,980 Climbing FlightAware ADS-B
05:59AM 53.3011 -3.5692 129° Southeast 497 572 37,000  Level FlightAware ADS-B
06:00AM 53.2529 -3.4674 128° Southeast 498 573 37,000 -1,620 Level FlightAware ADS-B
06:00AM 53.2203 -3.3986 128° Southeast 480 552 35,500  Descending FlightAware UK
06:00AM 53.2082 -3.3744 128° Southeast 499 574 37,000  Climbing FlightAware ADS-B
06:01AM 53.1680 -3.2900 128° Southeast 482 555 35,500  Descending FlightAware UK
06:01AM 53.1581 -3.2724 128° Southeast 501 577 37,000 2,400 Climbing FlightAware ADS-B
06:01AM 53.1145 -3.1797 128° Southeast 501 577 37,000 -1,740 Level FlightAware ADS-B
06:02AM 53.0808 -3.1101 128° Southeast 484 557 35,500  Descending FlightAware UK
06:02AM 53.0697 -3.0895 128° Southeast 503 579 37,000  Climbing FlightAware ADS-B
06:02AM 53.0459 -3.0379 128° Southeast 484 557 35,500  Descending FlightAware UK
06:02AM 53.0247 -2.9963 128° Southeast 504 580 37,000 1,800 Climbing FlightAware ADS-B
06:03AM 52.9716 -2.8935 131° Southeast 506 582 37,000 -1,740 Level FlightAware ADS-B
06:03AM 52.9452 -2.8430 131° Southeast 484 557 35,500  Descending FlightAware UK
06:03AM 52.9249 -2.8066 131° Southeast 507 583 37,000 2,040 Climbing FlightAware ADS-B
06:04AM 52.8768 -2.7165 131° Southeast 509 586 37,000 -1,920 Level FlightAware ADS-B
06:04AM 52.8517 -2.6689 131° Southeast 488 562 35,500  Descending FlightAware UK
06:05AM 52.8224 -2.6145 131° Southeast 510 587 37,000  Climbing FlightAware ADS-B
06:05AM 52.7955 -2.5641 131° Southeast 488 562 35,500  Descending FlightAware UK
06:05AM 52.7715 -2.5212 131° Southeast 509 586 37,000  Climbing FlightAware ADS-B
06:05AM 52.7391 -2.4586 131° Southeast 488 562 35,500  Descending FlightAware UK
06:06AM 52.7199 -2.4253 131° Southeast 510 587 37,000  Climbing FlightAware ADS-B
06:06AM 52.6926 -2.3719 131° Southeast 488 562 35,500  Descending FlightAware UK
06:06AM 52.6706 -2.3325 131° Southeast 509 586 37,000  Climbing FlightAware ADS-B
06:06AM 52.6454 -2.2842 131° Southeast 490 564 35,500  Descending FlightAware UK
06:07AM 52.6221 -2.2426 131° Southeast 509 586 37,000  Climbing FlightAware ADS-B
06:07AM 52.5893 -2.1801 131° Southeast 490 564 35,500  Descending FlightAware UK
06:07AM 52.5728 -2.1502 131° Southeast 509 586 37,000 2,160 Climbing FlightAware ADS-B
06:08AM 52.5258 -2.0641 132° Southeast 508 585 37,000 -1,860 Level FlightAware ADS-B
06:08AM 52.4951 -2.0073 132° Southeast 488 562 35,500  Descending FlightAware UK
06:08AM 52.4784 -1.9779 132° Southeast 509 586 37,000  Climbing FlightAware ADS-B
06:09AM 52.4386 -1.9041 132° Southeast 488 562 35,500  Descending FlightAware UK
06:09AM 52.4277 -1.8863 132° Southeast 508 585 37,000  Climbing FlightAware ADS-B
06:09AM 52.4005 -1.8349 132° Southeast 488 562 35,500  Descending FlightAware UK
06:09AM 52.3793 -1.7978 132° Southeast 509 586 37,000  Climbing FlightAware ADS-B
06:10AM 52.3535 -1.7499 132° Southeast 490 564 35,500  Descending FlightAware UK
06:10AM 52.3318 -1.7123 132° Southeast 509 586 37,000  Climbing FlightAware ADS-B
06:10AM 52.3059 -1.6639 132° Southeast 490 564 35,500  Descending FlightAware UK
06:10AM 52.2837 -1.6243 132° Southeast 508 585 37,000  Climbing FlightAware ADS-B
06:11AM 52.2586 -1.5787 132° Southeast 494 568 35,500  Descending FlightAware UK
06:11AM 52.2363 -1.5391 132° Southeast 508 585 37,000 2,040 Climbing FlightAware ADS-B
06:11AM 52.1884 -1.4545 133° Southeast 506 582 37,000 -1,980 Level FlightAware ADS-B
06:12AM 52.1638 -1.4088 133° Southeast 496 571 35,500  Descending FlightAware UK
06:12AM 52.1408 -1.3705 133° Southeast 504 580 37,000  Climbing FlightAware ADS-B
06:12AM 52.1167 -1.3249 133° Southeast 498 573 35,500  Descending FlightAware UK
06:12AM 52.0934 -1.2873 133° Southeast 502 578 37,000 1,980 Climbing FlightAware ADS-B
06:13AM 52.0457 -1.2021 132° Southeast 500 575 37,000  Level FlightAware ADS-B
06:13AM 51.9936 -1.1119 133° Southeast 497 572 37,000 -1,800 Level FlightAware ADS-B
06:14AM 51.9653 -1.0619 133° Southeast 498 573 35,500  Descending FlightAware UK
06:14AM 51.9459 -1.0306 133° Southeast 495 570 37,000  Climbing FlightAware ADS-B
06:14AM 51.9086 -0.9643 133° Southeast 500 575 35,500  Descending FlightAware UK
06:14AM 51.8976 -0.9472 133° Southeast 492 566 37,000  Climbing FlightAware ADS-B
06:15AM 51.8716 -0.9001 133° Southeast 498 573 35,500  Descending FlightAware UK
06:15AM 51.8510 -0.8647 133° Southeast 488 562 37,000 2,040 Climbing FlightAware ADS-B
06:15AM 51.8047 -0.7878 134° Southeast 487 560 37,000 -1,740 Level FlightAware ADS-B
06:16AM 51.7694 -0.7251 134° Southeast 494 568 35,500  Descending FlightAware UK
06:16AM 51.7576 -0.7065 134° Southeast 485 558 37,000  Climbing FlightAware ADS-B
06:16AM 51.7233 -0.6465 134° Southeast 490 564 35,500  Descending FlightAware UK
06:16AM 51.7103 -0.6253 134° Southeast 483 556 37,000  Climbing FlightAware ADS-B
06:17AM 51.6865 -0.5839 134° Southeast 488 562 35,500  Descending FlightAware UK
06:17AM 51.6688 -0.5549 134° Southeast 482 555 37,000 3,000 Climbing FlightAware ADS-B
06:17AM 51.6454 -0.5034 126° Southeast 477 549 37,000  Level FlightAware ADS-B
06:17AM 51.6369 -0.4788 119° Southeast 476 548 37,000  Level FlightAware ADS-B
06:18AM 51.6180 -0.4074 113° Southeast 475 547 37,000  Level FlightAware ADS-B
06:18AM 51.6021 -0.3014 104° East 474 545 37,000 -1,680 Level FlightAware ADS-B
06:19AM 51.5908 -0.2191 104° East 490 564 35,500  Descending FlightAware UK
06:19AM 51.5881 -0.1982 104° East 473 544 37,000  Climbing FlightAware ADS-B
06:19AM 51.5797 -0.1361 104° East 486 559 35,500  Descending FlightAware UK
06:19AM 51.5737 -0.0956 104° East 473 544 37,000  Climbing FlightAware ADS-B
06:19AM 51.5655 -0.0336 104° East 486 559 35,500  Descending FlightAware UK
06:20AM 51.5591 0.0108 104° East 476 548 37,000  Climbing FlightAware ADS-B
06:20AM 51.5509 0.0695 104° East 490 564 35,500  Descending FlightAware UK
06:20AM 51.5442 0.1142 104° East 477 549 37,000 3,060 Climbing FlightAware ADS-B
06:20AM 51.5366 0.1658 103° East 478 550 37,000  Level FlightAware ADS-B
06:21AM 51.5186 0.2752 105° East 479 551 37,000 -1,860 Level FlightAware ADS-B
06:21AM 51.5076 0.3380 105° East 492 566 35,500  Descending FlightAware UK
06:22AM 51.4935 0.4192 105° East 480 552 37,000  Climbing FlightAware ADS-B
06:22AM 51.4795 0.5026 105° East 494 568 35,500  Descending FlightAware UK
06:22AM 51.4757 0.5222 105° East 481 554 37,000  Climbing FlightAware ADS-B
06:23AM 51.4618 0.6062 105° East 494 568 35,500  Descending FlightAware UK
06:23AM 51.4582 0.6283 105° East 481 554 37,000  Climbing FlightAware ADS-B
06:23AM 51.4478 0.6893 105° East 492 566 35,500  Descending FlightAware UK
06:23AM 51.4403 0.7313 105° East 482 555 37,000 2,040 Climbing FlightAware ADS-B
06:24AM 51.4224 0.8381 105° East 483 556 37,000  Level FlightAware ADS-B
06:24AM 51.4045 0.9412 106° East 483 556 37,000  Level FlightAware ADS-B
06:25AM 51.3849 1.0549 105° East 483 556 37,000  Level FlightAware ADS-B
06:25AM 51.3667 1.1576 106° East 482 555 37,000 -1,500 Level FlightAware ADS-B
06:26AM 51.3479 1.2677 106° East 498 573 35,500 -1,680 Descending FlightAware UK
06:26AM 51.3334 1.3496 106° East 496 571 35,500 3,420 Level FlightAware UK
06:26AM 51.3350 1.3420 106° East 479 551 37,000  Climbing FlightAware
06:26AM 51.3226 1.4110 106° East 496 571 35,500  Descending FlightAware UK
06:27AM 51.3070 1.4990 106° East 481 554 37,000  Climbing FlightAware
06:27AM 51.2860 1.6160 106° East 496 571 35,500  Descending FlightAware UK
06:28AM 51.2830 1.6350 106° East 480 552 37,000  Climbing FlightAware
06:28AM 51.2713 1.6977 106° East 502 578 35,500 -2,760 Descending FlightAware UK
06:28AM 51.2603 1.7590 106° East 502 578 35,500 3,600 Level FlightAware UK
06:28AM 51.2570 1.7750 106° East 479 551 37,000  Climbing FlightAware
06:29AM 51.2454 1.8413 106° East 498 573 35,500 -2,580 Descending FlightAware UK
06:29AM 51.2295 1.8992 114° Southeast 496 571 35,500 3,180 Level FlightAware UK
06:29AM 51.2240 1.9210 114° Southeast 479 551 37,000 2,520 Climbing FlightAware
06:29AM 51.1985 2.0072 115° Southeast 480 552 37,000 -2,100 Level FlightAware ADS-B
06:30AM 51.1795 2.0727 115° Southeast 494 568 35,500  Descending FlightAware UK
06:30AM 51.1666 2.1121 115° Southeast 482 555 37,000  Climbing FlightAware ADS-B
06:30AM 51.1437 2.1866 115° Southeast 496 571 35,500  Descending FlightAware UK
06:31AM 51.1301 2.2293 115° Southeast 483 556 37,000  Climbing FlightAware ADS-B
06:31AM 51.1079 2.3018 115° Southeast 500 575 35,500  Descending FlightAware UK
06:31AM 51.1050 2.3090 115° Southeast 482 555 37,000 3,720 Climbing FlightAware
06:31AM 51.0848 2.3758 116° Southeast 483 556 37,000 -2,760 Level FlightAware ADS-B
06:32AM 51.0662 2.4350 116° Southeast 496 571 35,500 -1,500 Descending FlightAware UK
06:32AM 51.0246 2.5691 116° Southeast 494 568 35,500 1,680 Level FlightAware UK
06:33AM 51.0180 2.5920 116° Southeast 484 557 37,000  Climbing FlightAware
06:33AM 51.0009 2.6453 116° Southeast 500 575 35,500 -2,340 Descending FlightAware UK
06:33AM 50.9770 2.7218 116° Southeast 496 571 35,500 3,600 Level FlightAware UK
06:33AM 50.9800 2.7130 116° Southeast 484 557 37,000  Climbing FlightAware
06:33AM 50.9592 2.7793 116° Southeast 500 575 35,500 -2,580 Descending FlightAware UK
06:34AM 50.9410 2.8365 117° Southeast 502 578 35,500 3,180 Level FlightAware UK
06:34AM 50.9310 2.8650 117° Southeast 485 558 37,000 1,800 Climbing FlightAware
06:35AM 50.8920 2.9890 116° Southeast 485 558 37,000 -1,380 Level FlightAware
06:35AM 50.8619 3.0834 116° Southeast 500 575 35,500  Descending FlightAware UK
06:35AM 50.8470 3.1310 116° Southeast 485 558 37,000  Climbing FlightAware
06:36AM 50.8252 3.1978 116° Southeast 500 575 35,500 -2,460 Descending FlightAware UK
06:36AM 50.8069 3.2546 117° Southeast 500 575 35,500 4,260 Level FlightAware UK
06:36AM 50.8060 3.2570 117° Southeast 485 558 37,000  Climbing FlightAware
06:36AM 50.7883 3.3112 117° Southeast 500 575 35,500  Descending FlightAware UK
06:37AM 50.7650 3.3800 117° Southeast 485 558 37,000  Climbing FlightAware
06:37AM 50.7395 3.4627 117° Southeast 498 573 35,500  Descending FlightAware UK
06:37AM 50.7180 3.5250 117° Southeast 487 560 37,000  Climbing FlightAware
06:38AM 50.6774 3.6519 117° Southeast 508 585 35,500  Descending FlightAware UK
06:38AM 50.6780 3.6480 117° Southeast 484 557 37,000  Climbing FlightAware
06:39AM 50.6402 3.7645 117° Southeast 502 578 35,500  Descending FlightAware UK
06:39AM 50.6390 3.7670 117° Southeast 483 556 37,000  Climbing FlightAware
06:39AM 50.6095 3.8581 117° Southeast 498 573 35,500  Descending FlightAware UK
06:39AM 50.5960 3.8980 117° Southeast 483 556 37,000 1,560 Climbing FlightAware
06:40AM 50.5570 4.0160 117° Southeast 483 556 37,000 -1,140 Level FlightAware
06:41AM 50.5102 4.1562 117° Southeast 502 578 35,500  Descending FlightAware UK
06:41AM 50.5160 4.1370 117° Southeast 482 555 37,000  Climbing FlightAware
06:41AM 50.4783 4.2486 117° Southeast 1 1 35,500  Descending FlightAware UK
06:42AM 50.4700 4.2730 117° Southeast 482 555 37,000  Climbing FlightAware
06:42AM 50.4472 4.3417 117° Southeast 1 1 35,500  Descending FlightAware UK
06:42AM 50.4250 4.4090 117° Southeast 482 555 37,000  Climbing FlightAware
06:42AM 50.4043 4.4725 117° Southeast 1 1 35,500 -2,220 Descending FlightAware UK
06:43AM 50.3786 4.5458 119° Southeast 1 1 35,500 3,180 Level FlightAware UK
06:43AM 50.3770 4.5510 119° Southeast 484 557 37,000 2,040 Climbing FlightAware
06:44AM 50.3370 4.6650 119° Southeast 485 558 37,000  Level FlightAware
06:44AM 50.2880 4.8100 118° Southeast 486 559 37,000  Level FlightAware
06:45AM 50.2490 4.9220 119° Southeast 486 559 37,000  Level FlightAware
06:46AM 50.1970 5.0730 118° Southeast 487 560 37,000  Level FlightAware
06:46AM 50.1520 5.2020 119° Southeast 488 562 37,000  Level FlightAware
06:47AM 50.1040 5.3380 119° Southeast 489 563 37,000  Level FlightAware
06:48AM 50.0630 5.4560 118° Southeast 488 562 37,000  Level FlightAware
06:49AM 50.0210 5.5750 119° Southeast 486 559 37,000  Level FlightAware
06:49AM 49.9700 5.7190 119° Southeast 485 558 37,000  Level FlightAware
06:50AM 49.9270 5.8400 119° Southeast 484 557 37,000  Level FlightAware
06:51AM 49.8780 5.9760 119° Southeast 483 556 37,000  Level FlightAware
06:51AM 49.8420 6.0730 120° Southeast 480 552 37,000  Level FlightAware
06:52AM 49.7900 6.2180 119° Southeast 478 550 37,000  Level FlightAware
06:53AM 49.7530 6.3200 119° Southeast 477 549 37,000  Level FlightAware
06:53AM 49.6950 6.4780 120° Southeast 480 552 37,000  Level FlightAware
06:54AM 49.6560 6.5850 119° Southeast 476 548 37,000  Level FlightAware
06:55AM 49.6050 6.7220 120° Southeast 483 556 37,000  Level FlightAware
06:56AM 49.5610 6.8390 120° Southeast 484 557 37,000  Level FlightAware
06:56AM 49.5190 6.9530 120° Southeast 485 558 37,000  Level FlightAware
06:57AM 49.4690 7.0870 120° Southeast 488 562 37,000  Level FlightAware
06:58AM 49.4250 7.2050 120° Southeast 490 564 37,000  Level FlightAware
06:58AM 49.3700 7.3370 123° Southeast 483 556 37,000  Level FlightAware
06:59AM 49.3130 7.4560 126° Southeast 480 552 37,000  Level FlightAware
07:00AM 49.2550 7.5690 128° Southeast 480 552 37,000  Level FlightAware
07:00AM 49.1970 7.6830 128° Southeast 482 555 37,000  Level FlightAware
07:01AM 49.1390 7.7960 128° Southeast 482 555 37,000 -480 Level FlightAware
07:02AM 49.0780 7.9130 128° Southeast 489 563 36,400 -900 Descending FlightAware
07:03AM 49.0000 8.0640 128° Southeast 477 549 35,500 -840 Descending FlightAware
07:04AM 48.9390 8.1820 128° Southeast 472 543 35,000 -360 Descending FlightAware
07:04AM 48.8840 8.2850 129° Southeast 468 539 35,000  Level FlightAware
07:05AM 48.8310 8.3880 128° Southeast 469 540 35,000  Level FlightAware
07:06AM 48.7710 8.5010 129° Southeast 470 541 35,000  Level FlightAware
07:06AM 48.7150 8.6070 129° Southeast 470 541 35,000  Level FlightAware
07:07AM 48.6550 8.7190 129° Southeast 469 540 35,000  Level FlightAware
07:08AM 48.6000 8.8220 129° Southeast 465 535 35,000  Level FlightAware
07:08AM 48.5450 8.9270 128° Southeast 469 540 35,000  Level FlightAware
07:09AM 48.4820 9.0420 130° Southeast 470 541 35,000  Level FlightAware
07:10AM 48.4280 9.1430 129° Southeast 474 545 35,000  Level FlightAware
07:10AM 48.3710 9.2490 129° Southeast 481 554 35,000  Level FlightAware
07:11AM 48.3070 9.3660 129° Southeast 484 557 35,000  Level FlightAware
07:12AM 48.2500 9.4640 131° Southeast 482 555 35,000  Level FlightAware
07:13AM 48.1750 9.5650 138° Southeast 473 544 35,000  Level FlightAware
07:13AM 48.1080 9.6510 139° Southeast 474 545 35,000  Level FlightAware
07:14AM 48.0510 9.7250 139° Southeast 483 556 35,000  Level FlightAware
07:15AM 47.9590 9.8430 139° Southeast 486 559 35,000  Level FlightAware
07:15AM 47.8910 9.9300 139° Southeast 486 559 35,000  Level FlightAware
07:16AM 47.8130 10.0200 142° Southeast 473 544 35,000  Level FlightAware
07:17AM 47.7360 10.0930 147° Southeast 475 547 35,000  Level FlightAware
07:17AM 47.6630 10.1610 148° Southeast 472 543 35,000  Level FlightAware
07:18AM 47.5870 10.2310 148° Southeast 471 542 35,000  Level FlightAware
07:19AM 47.5060 10.3060 148° Southeast 471 542 35,000  Level FlightAware
07:20AM 47.4290 10.3750 149° Southeast 471 542 35,000  Level FlightAware
07:20AM 47.3490 10.4480 148° Southeast 472 543 35,000  Level FlightAware
07:21AM 47.2450 10.5430 148° Southeast 472 543 35,000  Level FlightAware
07:22AM 47.1600 10.6180 149° Southeast 472 543 35,000  Level FlightAware
07:23AM 47.0860 10.6850 148° Southeast 471 542 35,000 240 Level FlightAware
07:24AM 46.9930 10.7590 152° Southeast 461 531 35,400 780 Climbing FlightAware
07:24AM 46.9050 10.8090 159° South 466 536 36,300 1,260 Climbing FlightAware
07:25AM 46.8340 10.8490 159° South 464 534 37,000 480 Climbing FlightAware
07:26AM 46.7380 10.9320 149° Southeast 477 549 37,000  Level FlightAware
07:26AM 46.6770 11.0170 136° Southeast 480 552 37,000  Level FlightAware
07:27AM 46.6030 11.1240 135° Southeast 482 555 37,000  Level FlightAware
07:28AM 46.5420 11.2110 136° Southeast 476 548 37,000  Level FlightAware
07:28AM 46.4690 11.3180 135° Southeast 476 548 37,000  Level FlightAware
07:29AM 46.4180 11.4000 132° Southeast 479 551 37,000  Level FlightAware
07:30AM 46.3440 11.5300 129° Southeast 479 551 37,000  Level FlightAware
07:31AM 46.2640 11.6660 130° Southeast 479 551 37,000  Level FlightAware
07:31AM 46.2060 11.7650 130° Southeast 479 551 37,000  Level FlightAware
07:32AM 46.1410 11.8750 130° Southeast 478 550 37,000  Level FlightAware
07:33AM 46.0860 11.9680 130° Southeast 476 548 37,000  Level FlightAware
07:34AM 46.0260 12.0700 130° Southeast 477 549 37,000  Level FlightAware
07:34AM 45.9670 12.1680 131° Southeast 477 549 37,000  Level FlightAware
07:35AM 45.9090 12.2650 131° Southeast 477 549 37,000  Level FlightAware
07:36AM 45.8370 12.3840 131° Southeast 480 552 37,000  Level FlightAware
07:36AM 45.7800 12.4800 130° Southeast 481 554 37,000  Level FlightAware
07:37AM 45.7190 12.5830 130° Southeast 483 556 37,000  Level FlightAware
07:38AM 45.6540 12.6900 131° Southeast 491 565 37,000  Level FlightAware
07:38AM 45.6020 12.7760 131° Southeast 492 566 37,000  Level FlightAware
07:39AM 45.5410 12.8740 132° Southeast 494 568 37,000  Level FlightAware
07:40AM 45.4650 12.9990 131° Southeast 495 570 37,000  Level FlightAware
07:40AM 45.4040 13.0700 141° Southeast 468 539 37,000  Level FlightAware
07:41AM 45.3260 13.1230 154° Southeast 476 548 37,000  Level FlightAware
07:42AM 45.2500 13.2270 136° Southeast 487 560 37,000  Level FlightAware
07:43AM 45.1890 13.3410 127° Southeast 498 573 37,000  Level FlightAware
07:43AM 45.1450 13.4270 126° Southeast 497 572 37,000  Level FlightAware
07:44AM 45.0860 13.5410 126° Southeast 497 572 37,000  Level FlightAware
07:45AM 45.0300 13.6560 125° Southeast 493 567 37,000  Level FlightAware
07:45AM 44.9760 13.7650 125° Southeast 492 566 37,000  Level FlightAware
07:46AM 44.9110 13.8980 125° Southeast 490 564 37,000  Level FlightAware
07:47AM 44.8600 13.9980 126° Southeast 490 564 37,000  Level FlightAware
07:48AM 44.8000 14.1190 125° Southeast 490 564 37,000  Level FlightAware
07:48AM 44.7410 14.2370 125° Southeast 491 565 37,000  Level FlightAware
07:51AM 44.5804 14.6057 121° Southeast  Level Estimated
07:52AM 44.5076 14.7714 122° Southeast  Level Estimated
07:52AM 44.4820 14.7430 122° Southeast 496 571 37,000  Level FlightAware
07:52AM 44.4280 14.8500 125° Southeast 496 571 37,000  Level FlightAware
07:53AM 44.3650 14.9690 126° Southeast 495 570 37,000  Level FlightAware
07:54AM 44.3150 15.0680 125° Southeast 494 568 37,000  Level FlightAware
07:54AM 44.2540 15.1860 126° Southeast 494 568 37,000  Level FlightAware
07:55AM 44.1980 15.2920 126° Southeast 496 571 37,000  Level FlightAware
07:56AM 44.1440 15.3950 126° Southeast 496 571 37,000  Level FlightAware
07:56AM 44.0820 15.5120 126° Southeast 497 572 37,000  Level FlightAware
07:57AM 44.0270 15.6170 126° Southeast 497 572 37,000  Level FlightAware
07:58AM 43.9670 15.7300 126° Southeast 497 572 37,000  Level FlightAware
07:59AM 43.9110 15.8350 126° Southeast 492 566 37,000  Level FlightAware
07:59AM 43.8520 15.9480 126° Southeast 495 570 37,000  Level FlightAware
08:00AM 43.7970 16.0470 128° Southeast 491 565 37,000  Level FlightAware
08:01AM 43.7340 16.1670 126° Southeast 491 565 37,000  Level FlightAware
08:01AM 43.6830 16.2610 127° Southeast 492 566 37,000  Level FlightAware
08:02AM 43.6240 16.3700 127° Southeast 492 566 37,000  Level FlightAware
08:03AM 43.5680 16.4720 127° Southeast 497 572 37,000  Level FlightAware
08:03AM 43.5070 16.5830 127° Southeast 499 574 37,000  Level FlightAware
08:04AM 43.4530 16.6820 127° Southeast 495 570 37,000  Level FlightAware
08:05AM 43.3880 16.8010 127° Southeast 500 575 37,000  Level FlightAware
08:06AM 43.3270 16.9100 128° Southeast 499 574 37,000  Level FlightAware
08:06AM 43.2760 17.0030 127° Southeast 499 574 37,000  Level FlightAware
08:07AM 43.2130 17.1170 127° Southeast 500 575 37,000  Level FlightAware
08:08AM 43.1490 17.2300 128° Southeast 500 575 37,000  Level FlightAware
08:08AM 43.0950 17.3280 127° Southeast 502 578 37,000  Level FlightAware
08:09AM 43.0310 17.4420 128° Southeast 503 579 37,000  Level FlightAware
08:10AM 42.9730 17.5450 128° Southeast 502 578 37,000  Level FlightAware
08:10AM 42.9170 17.6420 128° Southeast 501 577 37,000  Level FlightAware
08:11AM 42.8510 17.7590 128° Southeast 501 577 37,000  Level FlightAware
08:12AM 42.7970 17.8540 128° Southeast 502 578 37,000  Level FlightAware
08:12AM 42.7650 17.9090 128° Southeast 503 579 37,000  Level FlightAware
08:13AM 42.6950 18.0320 128° Southeast 505 581 37,000  Level FlightAware
08:14AM 42.6370 18.1320 128° Southeast 505 581 37,000  Level FlightAware
08:14AM 42.5740 18.2410 128° Southeast 503 579 37,000  Level FlightAware
08:15AM 42.5110 18.3340 133° Southeast 497 572 37,000  Level FlightAware
08:16AM 42.4350 18.4370 135° Southeast 497 572 37,000  Level FlightAware
08:17AM 42.3690 18.5240 136° Southeast 497 572 37,000  Level FlightAware
08:17AM 42.3040 18.6120 135° Southeast 497 572 37,000  Level FlightAware
08:18AM 42.2360 18.7040 135° Southeast 500 575 37,000  Level FlightAware
08:18AM 42.1870 18.7680 136° Southeast 501 577 37,000  Level FlightAware
08:19AM 42.1020 18.8820 135° Southeast 500 575 37,000  Level FlightAware
08:20AM 42.0300 18.9780 135° Southeast 500 575 37,000  Level FlightAware
08:21AM 41.9590 19.0720 135° Southeast 499 574 37,000  Level FlightAware
08:21AM 41.8920 19.1590 136° Southeast 499 574 37,000  Level FlightAware
08:22AM 41.8210 19.2540 135° Southeast 497 572 37,000  Level FlightAware
08:23AM 41.7540 19.3380 137° Southeast 494 568 37,000  Level FlightAware
08:24AM 41.6770 19.4340 137° Southeast 497 572 37,000  Level FlightAware
08:24AM 41.6140 19.5170 135° Southeast 497 572 37,000  Level FlightAware
08:25AM 41.5240 19.6370 135° Southeast 493 567 37,000  Level FlightAware
08:26AM 41.4490 19.7320 136° Southeast 490 564 37,000  Level FlightAware
08:27AM 41.3840 19.8160 136° Southeast 487 560 37,000  Level FlightAware
08:27AM 41.3180 19.9010 136° Southeast 485 558 37,000  Level FlightAware
08:28AM 41.2470 19.9920 136° Southeast 487 560 37,000  Level FlightAware
08:29AM 41.1830 20.0730 136° Southeast 487 560 37,000  Level FlightAware
08:29AM 41.1090 20.1660 137° Southeast 488 562 37,000  Level FlightAware
08:30AM 41.0530 20.2390 135° Southeast 488 562 37,000  Level FlightAware
08:31AM 40.9880 20.3220 136° Southeast 490 564 37,000  Level FlightAware
08:31AM 40.9370 20.3860 137° Southeast 492 566 37,000  Level FlightAware
08:32AM 40.8710 20.4690 136° Southeast 495 570 37,000  Level FlightAware
08:32AM 40.8080 20.5490 136° Southeast 496 571 37,000  Level FlightAware
08:33AM 40.7290 20.6470 137° Southeast 497 572 37,000  Level FlightAware
08:34AM 40.6620 20.7300 137° Southeast 497 572 37,000  Level FlightAware
08:35AM 40.6110 20.7950 136° Southeast 496 571 37,000  Level FlightAware
08:35AM 40.5480 20.8730 137° Southeast 495 570 37,000  Level FlightAware
08:36AM 40.4780 20.9590 137° Southeast 494 568 37,000  Level FlightAware
08:37AM 40.4120 21.0370 138° Southeast 494 568 37,000  Level FlightAware
08:38AM 40.3230 21.1450 137° Southeast 494 568 37,000  Level FlightAware
08:38AM 40.2090 21.2820 137° Southeast 493 567 37,000  Level FlightAware
08:39AM 40.1470 21.3570 137° Southeast 492 566 37,000  Level FlightAware
08:40AM 40.0770 21.4410 137° Southeast 493 567 37,000  Level FlightAware
08:40AM 40.0160 21.5150 137° Southeast 492 566 37,000  Level FlightAware
08:41AM 39.9590 21.5830 138° Southeast 492 566 37,000  Level FlightAware
08:42AM 39.8550 21.7030 138° Southeast 491 565 37,000  Level FlightAware
08:43AM 39.7710 21.8060 137° Southeast 491 565 37,000  Level FlightAware
08:44AM 39.6780 21.9140 138° Southeast 490 564 37,000  Level FlightAware
08:44AM 39.6220 21.9820 137° Southeast 490 564 37,000  Level FlightAware
08:45AM 39.5650 22.0500 137° Southeast 490 564 37,000  Level FlightAware
08:46AM 39.5090 22.1190 136° Southeast 490 564 37,000  Level FlightAware
08:46AM 39.4520 22.1870 137° Southeast 490 564 37,000  Level FlightAware
08:47AM 39.3820 22.2720 137° Southeast 490 564 37,000  Level FlightAware
08:48AM 39.3260 22.3400 137° Southeast 490 564 37,000  Level FlightAware
08:49AM 39.2690 22.4080 137° Southeast 490 564 37,000  Level FlightAware
08:49AM 39.2130 22.4750 137° Southeast 490 564 37,000  Level FlightAware
08:50AM 39.1560 22.5430 137° Southeast 490 564 37,000  Level FlightAware
08:51AM 39.0860 22.6280 137° Southeast 490 564 37,000  Level FlightAware
08:51AM 39.0300 22.6960 137° Southeast 490 564 37,000  Level FlightAware
08:52AM 38.9730 22.7630 138° Southeast 490 564 37,000  Level FlightAware
08:53AM 38.9170 22.8310 137° Southeast 490 564 37,000  Level FlightAware
08:55AM 38.7870 23.1023 122° Southeast  Level Estimated
08:55AM 38.5010 23.2600 122° Southeast 37,000  Level FlightAware
08:56AM 38.7145 23.2526 122° Southeast  Level Estimated
08:58AM 38.3554 23.5691 121° Southeast  Level Estimated
08:59AM 38.2841 23.7195 121° Southeast  Level Estimated
09:00AM 38.2127 23.8695 121° Southeast  Level Estimated
09:01AM 38.1410 24.0193 121° Southeast  Level Estimated
09:02AM 38.0691 24.1688 121° Southeast  Level Estimated
09:03AM 37.9970 24.3179 121° Southeast  Level Estimated
09:04AM 37.9248 24.4668 122° Southeast  Level Estimated
09:05AM 37.8523 24.6154 122° Southeast  Level Estimated
09:06AM 37.7797 24.7637 122° Southeast  Level Estimated
09:07AM 37.7069 24.9117 122° Southeast  Level Estimated
09:07AM 37.4780 24.7830 122° Southeast 482 555 37,000  Level FlightAware
09:08AM 37.6339 25.0594 122° Southeast  Level Estimated
09:08AM 37.4380 24.8640 122° Southeast 482 555 37,000  Level FlightAware
09:09AM 37.3600 25.0110 124° Southeast 482 555 37,000  Level FlightAware
09:10AM 37.2850 25.1550 123° Southeast 481 554 37,000  Level FlightAware
09:11AM 37.2040 25.3130 123° Southeast 477 549 37,000  Level FlightAware
09:12AM 37.1460 25.4220 124° Southeast 481 554 37,000  Level FlightAware
09:13AM 37.0910 25.5260 124° Southeast 482 555 37,000  Level FlightAware
09:13AM 37.0370 25.6290 123° Southeast 482 555 37,000  Level FlightAware
09:14AM 36.9880 25.7220 123° Southeast 482 555 37,000  Level FlightAware
09:15AM 36.9330 25.8270 123° Southeast 482 555 37,000  Level FlightAware
09:15AM 36.8830 25.9200 124° Southeast 482 555 37,000  Level FlightAware
09:16AM 36.8330 26.0150 123° Southeast 480 552 37,000  Level FlightAware
09:17AM 36.7860 26.1030 124° Southeast 480 552 37,000  Level FlightAware
09:18AM 36.7290 26.2090 124° Southeast 480 552 37,000  Level FlightAware
09:18AM 36.6720 26.3170 123° Southeast 480 552 37,000  Level FlightAware
09:19AM 36.6340 26.3850 125° Southeast 480 552 37,000  Level FlightAware
09:20AM 36.5690 26.5070 124° Southeast 480 552 37,000  Level FlightAware
09:20AM 36.5170 26.6040 124° Southeast 480 552 37,000  Level FlightAware
09:21AM 36.4700 26.6880 125° Southeast 481 554 37,000  Level FlightAware
09:22AM 36.4130 26.7960 123° Southeast 480 552 37,000  Level FlightAware
09:22AM 36.3720 26.8690 125° Southeast 481 554 37,000  Level FlightAware
09:23AM 36.3170 26.9700 124° Southeast 476 548 37,000  Level FlightAware
09:24AM 36.2730 27.0520 124° Southeast 477 549 37,000  Level FlightAware
09:25AM 36.2150 27.1570 124° Southeast 482 555 37,000  Level FlightAware
09:25AM 36.1560 27.2640 124° Southeast 482 555 37,000  Level FlightAware
09:26AM 36.1170 27.3350 124° Southeast 482 555 37,000  Level FlightAware
09:27AM 36.0380 27.4760 125° Southeast 483 556 37,000  Level FlightAware
09:27AM 35.9900 27.5630 124° Southeast 484 557 37,000  Level FlightAware
09:29AM 35.9120 27.7050 124° Southeast 484 557 37,000  Level FlightAware
09:29AM 35.8690 27.7830 124° Southeast 484 557 37,000  Level FlightAware
09:30AM 35.7920 27.9160 125° Southeast 487 560 37,000  Level FlightAware
09:31AM 35.7240 28.0370 125° Southeast 487 560 37,000  Level FlightAware
09:32AM 35.6710 28.1300 125° Southeast 487 560 37,000  Level FlightAware
09:32AM 35.6130 28.2330 125° Southeast 487 560 37,000  Level FlightAware
09:33AM 35.5610 28.3240 125° Southeast 489 563 37,000  Level FlightAware
09:34AM 35.5090 28.4150 125° Southeast 489 563 37,000  Level FlightAware
09:34AM 35.4520 28.5150 125° Southeast 490 564 37,000  Level FlightAware
09:35AM 35.3910 28.6220 125° Southeast 486 559 37,000  Level FlightAware
09:36AM 35.3250 28.7350 126° Southeast 492 566 37,000  Level FlightAware
09:37AM 35.2680 28.8330 125° Southeast 493 567 37,000  Level FlightAware
09:37AM 35.2150 28.9270 125° Southeast 493 567 37,000  Level FlightAware
09:38AM 35.1580 29.0250 125° Southeast 494 568 37,000  Level FlightAware
09:39AM 35.1030 29.1200 125° Southeast 490 564 37,000  Level FlightAware
09:40AM 35.0140 29.2730 125° Southeast 495 570 37,000  Level FlightAware
09:41AM 34.9410 29.3960 126° Southeast 495 570 37,000  Level FlightAware
09:42AM 34.8220 29.5980 126° Southeast 497 572 37,000  Level FlightAware
09:43AM 34.7290 29.7540 126° Southeast 496 571 37,000  Level FlightAware
09:45AM 34.6080 29.9590 126° Southeast 497 572 37,000  Level FlightAware
09:46AM 34.5310 30.1100 122° Southeast 469 540 37,000  Level FlightAware
09:47AM 34.4620 30.2550 120° Southeast 464 534 37,000  Level FlightAware
09:49AM 34.3700 30.4450 120° Southeast 464 534 37,000  Level FlightAware
09:50AM 34.2970 30.5970 120° Southeast 460 529 37,000  Level FlightAware
09:50AM 34.2480 30.6970 121° Southeast 455 524 37,000  Level FlightAware
09:51AM 34.2070 30.7810 121° Southeast 455 524 37,000  Level FlightAware
09:52AM 34.1560 30.8870 120° Southeast 452 520 37,000  Level FlightAware
09:53AM 34.1140 30.9720 121° Southeast 451 519 37,000  Level FlightAware
09:53AM 34.0710 31.0620 120° Southeast 451 519 37,000  Level FlightAware
09:54AM 34.0230 31.1600 121° Southeast 450 518 37,000  Level FlightAware
09:55AM 33.9730 31.2600 121° Southeast 450 518 37,000  Level FlightAware
09:55AM 33.9350 31.3360 121° Southeast 450 518 37,000  Level FlightAware
09:56AM 33.8830 31.4420 121° Southeast 451 519 37,000  Level FlightAware
09:57AM 33.8380 31.5320 121° Southeast 452 520 37,000  Level FlightAware
09:57AM 33.7940 31.6210 121° Southeast 453 521 37,000  Level FlightAware
09:58AM 33.7460 31.7170 121° Southeast 454 522 37,000  Level FlightAware
09:59AM 33.7010 31.8070 121° Southeast 456 525 37,000  Level FlightAware
10:00AM 33.6520 31.9050 121° Southeast 456 525 37,000  Level FlightAware
10:00AM 33.6130 31.9820 121° Southeast 456 525 37,000  Level FlightAware
10:02AM 33.5150 32.1770 121° Southeast 462 532 37,000  Level FlightAware
10:03AM 33.4360 32.3330 121° Southeast 462 532 37,000  Level FlightAware
10:04AM 33.3910 32.4220 121° Southeast 463 533 37,000  Level FlightAware
10:04AM 33.3540 32.4940 122° Southeast 462 532 37,000  Level FlightAware
10:05AM 33.3090 32.5820 121° Southeast 462 532 37,000  Level FlightAware
10:06AM 33.1990 32.7970 121° Southeast 462 532 37,000  Level FlightAware
10:07AM 33.1400 32.9120 121° Southeast 463 533 37,000 -300 Level FlightAware
10:08AM 33.1040 32.9800 122° Southeast 463 533 36,600 -1,920 Descending FlightAware
10:09AM 33.0380 33.1080 122° Southeast 460 529 34,000 -2,160 Descending FlightAware
10:10AM 33.0140 33.2030 107° East 470 541 33,000 -720 Descending FlightAware
10:10AM 33.0050 33.3320 95° East 467 537 33,000  Level FlightAware
10:11AM 32.9960 33.4470 95° East 467 537 33,000 -300 Level FlightAware
10:12AM 32.9650 33.5400 112° Southeast 469 540 32,600 -1,020 Descending FlightAware
10:12AM 32.8980 33.6270 133° Southeast 450 518 31,600 -1,200 Descending FlightAware
10:13AM 32.8420 33.6970 134° Southeast 430 495 30,900 -1,200 Descending FlightAware
10:13AM 32.8150 33.7140 152° Southeast 424 488 30,500 -2,100 Descending FlightAware
10:14AM 32.7410 33.7080 184° South 412 474 29,000 -2,220 Descending FlightAware
10:14AM 32.7200 33.6910 214° Southwest 404 465 28,500 -2,100 Descending FlightAware
10:15AM 32.6930 33.6420 237° Southwest 396 456 27,600 -2,100 Descending FlightAware
10:15AM 32.6610 33.5890 234° Southwest 398 458 26,600 -2,040 Descending FlightAware
10:15AM 32.6390 33.5730 211° Southwest 395 455 26,100 -1,800 Descending FlightAware
10:16AM 32.5970 33.5610 194° South 385 443 25,400 -1,860 Descending FlightAware
10:16AM 32.5480 33.5760 166° South 368 423 24,400 -2,160 Descending FlightAware
10:17AM 32.5240 33.5960 145° Southeast 359 413 23,800 -2,520 Descending FlightAware
10:17AM 32.4970 33.6650 115° Southeast 350 403 22,100 -2,340 Descending FlightAware
10:18AM 32.4950 33.7420 92° East 342 394 20,700 -1,980 Descending FlightAware
10:19AM 32.4930 33.8230 92° East 329 379 19,300 -1,740 Descending FlightAware
10:19AM 32.4920 33.8940 91° East 314 361 18,300 -1,500 Descending FlightAware
10:20AM 32.4900 33.9650 92° East 286 329 17,200 -1,920 Descending FlightAware
10:21AM 32.4880 34.0280 92° East 280 322 15,600 -2,280 Descending FlightAware
10:21AM 32.4860 34.0910 92° East 278 320 14,200 -1,980 Descending FlightAware
10:22AM 32.4830 34.1340 95° East 275 316 13,300 -1,500 Descending FlightAware
10:22AM 32.4740 34.1530 119° Southeast 277 319 13,100 -540 Descending FlightAware
10:23AM 32.4540 34.1730 140° Southeast 286 329 13,000 -180 Descending FlightAware
10:23AM 32.4360 34.1770 169° South 287 330 13,000  Level FlightAware
10:23AM 32.4120 34.1680 198° South 285 328 13,000  Level FlightAware
10:23AM 32.3970 34.1480 228° Southwest 291 335 13,000  Level FlightAware
10:24AM 32.3910 34.1250 253° West 295 339 13,000 -480 Level FlightAware
10:24AM 32.3780 34.0920 245° Southwest 288 331 12,700 -1,200 Descending FlightAware
10:24AM 32.3600 34.0770 215° Southwest 280 322 12,200 -1,800 Descending FlightAware
10:25AM 32.3410 34.0720 193° South 273 314 11,800 -1,680 Descending FlightAware
10:25AM 32.3110 34.0830 163° South 268 308 11,100 -1,740 Descending FlightAware
10:26AM 32.2610 34.1120 154° Southeast 266 306 9,800 -1,680 Descending FlightAware
10:26AM 32.2340 34.1270 155° Southeast 265 305 9,200 -1,680 Descending FlightAware
10:27AM 32.1990 34.1460 155° Southeast 263 303 8,300 -1,620 Descending FlightAware
10:27AM 32.1850 34.1550 151° Southeast 262 302 8,000 -720 Descending FlightAware
10:27AM 32.1480 34.1740 157° South 260 299 7,700 -540 Descending FlightAware
10:30AM 32.0845 34.4991 103° East  Level Estimated
10:31AM 32.0532 34.6575 103° East  Level Estimated
10:32AM 32.0217 34.8158 103° East  Level Estimated
10:33AM 32.0095 34.8769 103° East  Level Estimated
10:34AM 32.0095 34.8769 270° West  Level Estimated
10:35AM 32.0095 34.8769 270° West  Level Estimated
10:36AM 32.0095 34.8769 270° West  Level Estimated
10:37AM 32.0095 34.8769 270° West  Level Estimated
10:38AM 32.0095 34.8769 270° West  Level Estimated
10:39AM 32.0095 34.8769 270° West  Level Estimated
10:40AM 32.0095 34.8769 270° West  Level Estimated